Time;durP1;ratioP1;P1;durP2;ratioP2;P2;SDS_P1;SDS_P2;PMS_P1;PMS_P2;Temp;Humidity;BMP_temperature;BMP_pressure;BME280_temperature;BME280_humidity;BME280_pressure;Samples;Min_cycle;Max_cycle;Signal;HPM_P1;HPM_P2
2023/07/03 00:00:18;;;;;;;11.13;5.73;;;15.30;1.00;;;;;;5099235;28;20464;-58
2023/07/03 00:02:49;;;;;;;16.13;6.20;;;15.20;1.00;;;;;;5099492;28;20463;-58
2023/07/03 00:05:19;;;;;;;13.90;5.60;;;15.20;1.00;;;;;;5098798;28;20465;-57
2023/07/03 00:07:47;;;;;;;11.70;5.20;;;15.10;1.00;;;;;;5098805;28;20622;-57
2023/07/03 00:10:15;;;;;;;20.20;6.03;;;15.10;1.00;;;;;;5098221;28;20921;-57
2023/07/03 00:12:42;;;;;;;8.07;5.07;;;15.10;1.00;;;;;;5098889;28;20875;-58
2023/07/03 00:15:10;;;;;;;9.40;4.97;;;15.00;1.00;;;;;;5098629;28;20764;-58
2023/07/03 00:17:39;;;;;;;12.50;5.70;;;15.00;1.00;;;;;;5099159;28;20475;-57
2023/07/03 00:20:11;;;;;;;10.03;4.70;;;15.10;1.00;;;;;;5093908;28;20432;-58
2023/07/03 00:22:38;;;;;;;13.17;5.00;;;15.00;1.00;;;;;;5078515;28;20468;-58
2023/07/03 00:25:06;;;;;;;13.70;5.60;;;15.10;1.00;;;;;;5085581;28;20464;-58
2023/07/03 00:27:33;;;;;;;13.47;5.33;;;15.10;1.00;;;;;;5098335;28;20485;-58
2023/07/03 00:30:00;;;;;;;11.57;5.10;;;15.00;1.00;;;;;;5098840;28;20461;-58
2023/07/03 00:32:28;;;;;;;16.47;5.63;;;15.00;1.00;;;;;;5098288;28;20467;-57
2023/07/03 00:34:56;;;;;;;12.10;5.03;;;14.90;1.00;;;;;;5097999;28;20460;-60
2023/07/03 00:37:24;;;;;;;12.27;5.10;;;15.00;1.00;;;;;;5098057;28;20452;-59
2023/07/03 00:39:51;;;;;;;13.90;5.30;;;15.00;1.00;;;;;;5098086;28;20540;-58
2023/07/03 00:42:18;;;;;;;14.47;5.70;;;14.90;1.00;;;;;;5098313;28;20461;-58
2023/07/03 00:44:45;;;;;;;9.83;4.97;;;15.00;1.00;;;;;;5098715;28;20461;-58
2023/07/03 00:47:12;;;;;;;15.63;6.37;;;15.00;1.00;;;;;;5098297;28;20460;-58
2023/07/03 00:49:39;;;;;;;12.43;5.00;;;14.90;1.00;;;;;;5097587;28;20468;-58
2023/07/03 00:52:10;;;;;;;15.60;5.27;;;14.90;1.00;;;;;;5098403;28;20493;-59
2023/07/03 00:54:38;;;;;;;8.17;5.03;;;14.80;1.00;;;;;;5098377;28;20465;-59
2023/07/03 00:57:05;;;;;;;10.87;5.83;;;14.80;1.00;;;;;;5098085;28;20456;-58
2023/07/03 00:59:34;;;;;;;10.73;5.50;;;14.80;1.00;;;;;;5098699;28;20453;-58
2023/07/03 01:02:08;;;;;;;11.63;5.60;;;14.70;1.00;;;;;;5098861;28;20452;-58
2023/07/03 01:04:41;;;;;;;12.03;5.47;;;14.70;1.00;;;;;;5098900;28;20737;-57
2023/07/03 01:07:13;;;;;;;16.73;5.60;;;14.60;1.00;;;;;;5098498;28;20467;-57
2023/07/03 01:09:45;;;;;;;11.20;5.60;;;14.60;1.00;;;;;;5098420;28;20460;-58
2023/07/03 01:12:14;;;;;;;17.20;5.77;;;14.60;1.00;;;;;;5098686;28;20460;-58
2023/07/03 01:14:42;;;;;;;10.07;5.30;;;14.50;1.00;;;;;;5098634;28;20460;-58
2023/07/03 01:17:11;;;;;;;17.03;6.50;;;14.40;1.00;;;;;;5098368;28;20460;-56
2023/07/03 01:19:41;;;;;;;17.60;5.57;;;14.40;1.00;;;;;;5098389;28;20980;-58
2023/07/03 01:22:16;;;;;;;14.17;5.40;;;14.30;1.00;;;;;;5097784;28;20460;-58
2023/07/03 01:24:48;;;;;;;18.80;5.70;;;14.30;1.00;;;;;;5098634;28;20448;-58
2023/07/03 01:27:20;;;;;;;16.50;5.73;;;14.30;1.00;;;;;;5098245;28;20456;-58
2023/07/03 01:29:50;;;;;;;13.03;6.63;;;14.20;1.00;;;;;;5098182;28;20744;-57
2023/07/03 01:32:20;;;;;;;12.17;5.30;;;14.20;1.00;;;;;;5097896;28;20812;-57
2023/07/03 01:34:48;;;;;;;19.13;5.20;;;14.20;1.00;;;;;;5097849;28;20464;-56
2023/07/03 01:37:16;;;;;;;15.33;5.67;;;14.10;1.00;;;;;;5097669;28;20467;-57
2023/07/03 01:39:47;;;;;;;16.37;6.63;;;14.10;1.00;;;;;;5097658;28;20488;-57
2023/07/03 01:42:14;;;;;;;14.17;5.53;;;14.10;1.00;;;;;;5098160;28;20502;-56
2023/07/03 01:44:41;;;;;;;11.13;6.10;;;14.00;1.00;;;;;;5098414;28;20456;-57
2023/07/03 01:47:11;;;;;;;13.60;6.27;;;14.00;1.00;;;;;;5098024;28;20464;-57
2023/07/03 01:49:38;;;;;;;16.70;5.93;;;14.00;1.00;;;;;;5097880;28;20495;-58
2023/07/03 01:52:12;;;;;;;17.50;6.57;;;14.00;1.00;;;;;;5097966;28;20457;-57
2023/07/03 01:54:47;;;;;;;16.50;5.00;;;14.00;1.00;;;;;;5097898;28;20467;-56
2023/07/03 01:57:23;;;;;;;14.73;5.60;;;14.00;99.90;;;;;;5097948;28;20460;-58
2023/07/03 01:59:53;;;;;;;14.80;5.53;;;14.00;20.80;;;;;;5097624;28;20464;-57
2023/07/03 02:02:24;;;;;;;15.70;5.97;;;14.00;1.00;;;;;;5097603;28;20461;-58
2023/07/03 02:04:58;;;;;;;14.10;5.10;;;14.00;1.00;;;;;;5097778;28;20472;-57
2023/07/03 02:07:27;;;;;;;18.70;5.57;;;13.90;1.00;;;;;;5097772;28;20456;-57
2023/07/03 02:09:54;;;;;;;10.50;5.70;;;13.90;1.00;;;;;;5097496;28;20467;-57
2023/07/03 02:12:23;;;;;;;16.20;5.63;;;13.80;1.00;;;;;;5097902;28;20465;-57
2023/07/03 02:14:50;;;;;;;13.07;5.90;;;13.80;1.00;;;;;;5097642;28;20454;-56
2023/07/03 02:17:17;;;;;;;10.60;6.27;;;13.80;1.00;;;;;;5097439;28;20442;-58
2023/07/03 02:19:44;;;;;;;15.77;5.77;;;13.80;1.00;;;;;;5097532;28;20435;-57
2023/07/03 02:22:11;;;;;;;21.30;5.90;;;13.70;1.00;;;;;;5097679;28;20467;-58
2023/07/03 02:24:39;;;;;;;15.07;5.90;;;13.80;1.00;;;;;;5096894;28;20448;-57
2023/07/03 02:27:06;;;;;;;10.27;5.47;;;13.80;1.00;;;;;;5097242;28;20468;-58
2023/07/03 02:29:35;;;;;;;13.80;5.43;;;13.80;1.00;;;;;;5097036;28;20492;-58
2023/07/03 02:32:02;;;;;;;13.50;5.77;;;13.80;1.00;;;;;;5097496;28;20464;-58
2023/07/03 02:34:29;;;;;;;12.83;5.83;;;13.70;1.00;;;;;;5096855;28;20464;-58
2023/07/03 02:36:59;;;;;;;13.10;5.77;;;13.70;1.00;;;;;;5097423;28;20464;-58
2023/07/03 02:39:26;;;;;;;12.23;6.67;;;13.70;1.00;;;;;;5096999;28;20917;-57
2023/07/03 02:41:53;;;;;;;14.47;5.50;;;13.70;1.00;;;;;;5097353;28;20467;-57
2023/07/03 02:44:20;;;;;;;14.20;6.80;;;13.70;1.00;;;;;;5097568;28;20836;-57
2023/07/03 02:46:49;;;;;;;13.07;5.90;;;13.70;1.00;;;;;;5097561;28;20439;-57
2023/07/03 02:49:16;;;;;;;14.23;4.80;;;13.60;17.50;;;;;;5096756;28;20491;-57
2023/07/03 02:51:43;;;;;;;14.90;6.37;;;13.60;1.00;;;;;;5097126;28;20460;-57
2023/07/03 02:54:10;;;;;;;11.73;6.40;;;13.70;1.00;;;;;;5097025;28;20463;-57
2023/07/03 02:56:37;;;;;;;12.90;5.53;;;13.70;33.30;;;;;;5097223;28;20484;-58
2023/07/03 02:59:05;;;;;;;12.13;5.60;;;13.70;1.00;;;;;;5096630;28;20459;-58
2023/07/03 03:01:32;;;;;;;15.90;6.20;;;13.70;1.00;;;;;;5097165;28;20464;-59
2023/07/03 03:04:02;;;;;;;17.13;6.90;;;13.70;1.00;;;;;;5096133;28;20460;-57
2023/07/03 03:06:29;;;;;;;15.80;6.00;;;13.70;1.00;;;;;;5097027;28;20460;-57
2023/07/03 03:08:56;;;;;;;19.83;6.13;;;13.70;1.00;;;;;;5096836;28;20841;-57
2023/07/03 03:11:23;;;;;;;15.33;6.23;;;13.70;1.00;;;;;;5096867;28;20435;-58
2023/07/03 03:13:51;;;;;;;13.63;6.13;;;13.80;1.00;;;;;;5096986;28;20496;-58
2023/07/03 03:16:18;;;;;;;14.93;6.20;;;13.70;1.00;;;;;;5096868;28;20464;-57
2023/07/03 03:18:47;;;;;;;14.90;6.27;;;13.70;1.00;;;;;;5096810;28;20460;-57
2023/07/03 03:21:16;;;;;;;16.77;6.40;;;13.70;1.00;;;;;;5096553;28;20461;-58
2023/07/03 03:23:43;;;;;;;14.03;5.50;;;13.70;1.00;;;;;;5096621;28;20460;-58
2023/07/03 03:26:10;;;;;;;16.10;6.33;;;13.70;1.00;;;;;;5096776;28;20787;-58
2023/07/03 03:28:38;;;;;;;12.70;6.70;;;13.70;1.00;;;;;;5096648;28;20948;-58
2023/07/03 03:31:05;;;;;;;15.13;5.73;;;13.70;1.00;;;;;;5096109;28;20464;-57
2023/07/03 03:33:32;;;;;;;16.73;6.53;;;13.70;1.00;;;;;;5095726;28;20464;-57
2023/07/03 03:35:59;;;;;;;18.10;7.07;;;13.70;1.00;;;;;;5096566;28;20464;-57
2023/07/03 03:38:27;;;;;;;14.50;6.10;;;13.70;1.00;;;;;;5096414;28;20456;-58
2023/07/03 03:40:56;;;;;;;19.23;6.10;;;13.70;1.00;;;;;;5096983;28;20467;-58
2023/07/03 03:43:23;;;;;;;16.10;6.27;;;13.70;1.00;;;;;;5096570;28;20503;-58
2023/07/03 03:45:57;;;;;;;20.90;6.50;;;13.70;1.00;;;;;;5098744;28;20462;-58
2023/07/03 03:48:25;;;;;;;17.40;6.90;;;13.70;1.00;;;;;;5100338;28;20521;-57
2023/07/03 03:50:52;;;;;;;14.60;6.57;;;13.70;1.00;;;;;;5100471;28;20460;-58
2023/07/03 03:53:19;;;;;;;23.63;6.17;;;13.60;1.00;;;;;;5100120;28;20467;-58
2023/07/03 03:55:51;;;;;;;15.70;7.17;;;13.60;1.00;;;;;;5099855;28;20438;-58
2023/07/03 03:58:18;;;;;;;17.80;6.60;;;13.60;1.00;;;;;;5100310;28;20450;-58
2023/07/03 04:00:46;;;;;;;16.33;6.30;;;13.60;1.00;;;;;;5099376;28;20465;-58
2023/07/03 04:03:13;;;;;;;13.20;5.90;;;13.60;1.00;;;;;;5100068;28;20556;-58
2023/07/03 04:05:45;;;;;;;20.50;6.63;;;13.60;1.00;;;;;;5099943;28;20472;-57
2023/07/03 04:08:12;;;;;;;15.23;6.30;;;13.60;1.00;;;;;;5099869;28;20431;-58
2023/07/03 04:10:40;;;;;;;18.13;6.17;;;13.60;1.00;;;;;;5099631;28;20496;-58
2023/07/03 04:13:08;;;;;;;20.43;7.40;;;13.60;1.00;;;;;;5099422;28;20460;-58
2023/07/03 04:15:38;;;;;;;18.37;6.03;;;13.70;1.00;;;;;;5099717;28;20885;-58
2023/07/03 04:18:05;;;;;;;19.03;6.40;;;13.70;1.00;;;;;;5099605;28;20804;-61
2023/07/03 04:20:33;;;;;;;18.73;6.40;;;13.70;1.00;;;;;;5100050;28;20797;-57
2023/07/03 04:23:00;;;;;;;20.90;6.83;;;13.70;1.00;;;;;;5099552;28;20461;-57
2023/07/03 04:25:28;;;;;;;16.73;6.40;;;13.70;1.00;;;;;;5099241;28;20496;-59
2023/07/03 04:27:55;;;;;;;20.13;6.90;;;13.80;1.00;;;;;;5099403;28;20563;-58
2023/07/03 04:30:24;;;;;;;16.97;6.27;;;13.90;97.30;;;;;;5099175;28;20484;-59
2023/07/03 04:32:54;;;;;;;14.97;6.03;;;13.90;99.90;;;;;;5099805;28;20464;-59
2023/07/03 04:35:22;;;;;;;19.07;5.80;;;14.00;1.00;;;;;;5099311;28;20464;-58
2023/07/03 04:37:49;;;;;;;13.63;5.60;;;14.00;60.90;;;;;;5098817;28;20462;-58
2023/07/03 04:40:17;;;;;;;18.40;6.40;;;14.10;1.00;;;;;;5098686;28;20487;-60
2023/07/03 04:42:44;;;;;;;24.07;7.60;;;14.10;1.00;;;;;;5098738;28;20464;-58
2023/07/03 04:45:13;;;;;;;18.80;7.13;;;14.10;1.00;;;;;;5098770;28;20435;-58
2023/07/03 04:47:42;;;;;;;17.00;6.53;;;14.10;99.90;;;;;;5098781;28;20464;-57
2023/07/03 04:50:11;;;;;;;20.93;7.53;;;14.30;1.00;;;;;;5098860;28;20499;-58
2023/07/03 04:52:39;;;;;;;18.17;6.97;;;14.30;85.70;;;;;;5099344;28;20464;-59
2023/07/03 04:55:07;;;;;;;15.77;6.00;;;14.40;99.90;;;;;;5098555;28;20464;-59
2023/07/03 04:57:38;;;;;;;17.60;6.60;;;14.30;55.10;;;;;;5098242;28;20885;-58
2023/07/03 05:00:14;;;;;;;16.53;6.20;;;14.30;18.10;;;;;;5098941;28;20465;-59
2023/07/03 05:02:43;;;;;;;23.97;6.77;;;14.40;30.90;;;;;;5098646;28;20464;-58
2023/07/03 05:05:11;;;;;;;14.80;5.87;;;14.40;56.20;;;;;;5098460;28;20464;-58
2023/07/03 05:07:39;;;;;;;16.00;6.43;;;14.40;57.60;;;;;;5098325;28;20513;-59
2023/07/03 05:10:07;;;;;;;16.20;6.63;;;14.50;63.40;;;;;;5098317;28;20463;-59
2023/07/03 05:12:34;;;;;;;20.37;7.10;;;14.50;69.00;;;;;;5098395;28;20448;-59
2023/07/03 05:15:07;;;;;;;15.60;6.80;;;14.50;12.30;;;;;;5098284;28;20547;-60
2023/07/03 05:17:35;;;;;;;21.53;6.93;;;14.50;54.50;;;;;;5098296;28;20441;-59
2023/07/03 05:20:05;;;;;;;20.00;6.93;;;14.50;1.00;;;;;;5098405;28;20467;-59
2023/07/03 05:22:33;;;;;;;16.50;6.73;;;14.60;1.00;;;;;;5098543;28;20744;-60
2023/07/03 05:25:01;;;;;;;16.23;7.87;;;14.50;5.60;;;;;;5097550;28;20457;-60
2023/07/03 05:27:28;;;;;;;18.73;6.27;;;14.60;80.70;;;;;;5097910;28;20897;-59
2023/07/03 05:29:57;;;;;;;15.33;6.57;;;14.60;99.90;;;;;;5098067;28;20492;-59
2023/07/03 05:32:24;;;;;;;14.87;6.40;;;14.70;1.00;;;;;;5098107;28;20885;-60
2023/07/03 05:34:52;;;;;;;19.27;5.90;;;14.90;1.00;;;;;;5098067;28;20443;-61
2023/07/03 05:37:20;;;;;;;18.60;7.50;;;14.90;1.00;;;;;;5097975;28;20495;-61
2023/07/03 05:39:49;;;;;;;19.30;6.70;;;14.80;1.00;;;;;;5098151;28;20455;-61
2023/07/03 05:42:16;;;;;;;16.83;6.90;;;14.90;1.00;;;;;;5098044;28;20565;-62
2023/07/03 05:44:44;;;;;;;16.30;6.20;;;15.00;1.00;;;;;;5098317;28;20438;-60
2023/07/03 05:47:11;;;;;;;15.13;6.47;;;15.00;1.00;;;;;;5097724;28;20863;-59
2023/07/03 05:49:39;;;;;;;20.83;6.90;;;15.10;1.00;;;;;;5097763;28;20528;-60
2023/07/03 05:52:07;;;;;;;14.50;6.27;;;15.20;1.00;;;;;;5098005;28;20461;-60
2023/07/03 05:54:35;;;;;;;13.70;6.03;;;15.20;1.00;;;;;;5098192;28;20734;-60
2023/07/03 05:57:05;;;;;;;16.40;7.07;;;15.40;1.00;;;;;;5097511;28;20461;-59
2023/07/03 05:59:33;;;;;;;18.17;7.73;;;15.30;1.00;;;;;;5097693;28;20460;-58
2023/07/03 06:02:00;;;;;;;16.53;6.97;;;15.20;1.00;;;;;;5097686;28;20460;-58
2023/07/03 06:04:27;;;;;;;20.33;6.53;;;15.20;1.00;;;;;;5097943;28;20466;-58
2023/07/03 06:06:56;;;;;;;23.27;7.17;;;15.30;1.00;;;;;;5097946;28;20465;-58
2023/07/03 06:09:23;;;;;;;14.70;7.20;;;15.30;1.00;;;;;;5096453;28;20546;-58
2023/07/03 06:11:52;;;;;;;24.00;7.63;;;15.20;1.00;;;;;;5097452;28;20478;-59
2023/07/03 06:14:20;;;;;;;14.83;6.80;;;15.20;1.00;;;;;;5096439;28;20513;-60
2023/07/03 06:16:49;;;;;;;16.13;6.43;;;15.20;1.00;;;;;;5097519;28;20559;-60
2023/07/03 06:19:17;;;;;;;13.17;6.23;;;15.20;1.00;;;;;;5097312;28;20741;-60
2023/07/03 06:21:45;;;;;;;14.03;6.07;;;15.30;1.00;;;;;;5097596;28;20811;-60
2023/07/03 06:24:14;;;;;;;24.67;9.27;;;15.30;1.00;;;;;;5097212;28;20444;-59
2023/07/03 06:26:43;;;;;;;17.33;7.67;;;15.40;1.00;;;;;;5097318;28;20468;-60
2023/07/03 06:29:14;;;;;;;16.83;6.80;;;15.40;1.00;;;;;;5097492;28;20778;-59
2023/07/03 06:31:42;;;;;;;22.57;7.63;;;15.40;1.00;;;;;;5097027;28;20468;-59
2023/07/03 06:34:09;;;;;;;13.40;5.80;;;15.40;1.00;;;;;;5096744;28;20451;-59
2023/07/03 06:36:36;;;;;;;19.80;5.77;;;15.40;1.00;;;;;;5097504;28;20445;-59
2023/07/03 06:39:04;;;;;;;19.17;7.20;;;15.40;1.00;;;;;;5097255;28;20871;-59
2023/07/03 06:41:34;;;;;;;23.40;6.97;;;15.50;1.00;;;;;;5096885;28;20513;-60
2023/07/03 06:44:02;;;;;;;17.10;6.60;;;15.70;1.00;;;;;;5097091;28;20517;-60
2023/07/03 06:46:31;;;;;;;19.00;6.37;;;15.80;1.00;;;;;;5097472;28;20877;-59
2023/07/03 06:48:59;;;;;;;16.80;6.87;;;15.80;1.00;;;;;;5097385;28;20460;-60
2023/07/03 06:51:26;;;;;;;19.00;6.77;;;16.10;1.00;;;;;;5096794;28;20493;-60
2023/07/03 06:53:53;;;;;;;14.63;6.77;;;16.00;1.00;;;;;;5096737;28;20467;-60
2023/07/03 06:56:22;;;;;;;16.37;6.10;;;16.10;1.00;;;;;;5097082;28;20878;-60
2023/07/03 06:58:50;;;;;;;20.93;6.33;;;16.20;1.00;;;;;;5096983;28;20471;-60
2023/07/03 07:01:20;;;;;;;18.53;6.73;;;16.40;1.00;;;;;;5096865;28;20896;-59
2023/07/03 07:03:49;;;;;;;16.93;7.00;;;16.40;1.00;;;;;;5096619;28;20439;-60
2023/07/03 07:06:18;;;;;;;19.80;8.27;;;16.30;1.00;;;;;;5097227;28;20465;-59
2023/07/03 07:08:46;;;;;;;16.57;6.40;;;16.50;1.00;;;;;;5097214;28;20467;-60
2023/07/03 07:11:16;;;;;;;14.43;6.23;;;16.60;1.00;;;;;;5096137;28;20896;-61
2023/07/03 07:13:45;;;;;;;15.50;6.70;;;16.50;1.00;;;;;;5095570;28;20889;-62
2023/07/03 07:16:13;;;;;;;23.37;7.60;;;16.50;1.00;;;;;;5094899;28;20431;-59
2023/07/03 07:18:41;;;;;;;21.53;7.00;;;16.70;1.00;;;;;;5096388;28;20517;-60
2023/07/03 07:21:09;;;;;;;20.73;6.73;;;16.80;1.00;;;;;;5098949;28;20427;-56
2023/07/03 07:23:37;;;;;;;14.13;6.87;;;16.80;19.70;;;;;;5100394;28;20880;-59
2023/07/03 07:26:04;;;;;;;16.97;7.13;;;16.90;1.00;;;;;;5100345;28;20534;-61
2023/07/03 07:28:31;;;;;;;16.43;7.13;;;16.90;1.00;;;;;;5100750;28;20464;-61
2023/07/03 07:30:58;;;;;;;15.50;7.80;;;16.90;1.00;;;;;;5099339;28;20467;-60
2023/07/03 07:33:26;;;;;;;15.03;7.03;;;16.90;1.00;;;;;;5098987;28;20467;-60
2023/07/03 07:35:53;;;;;;;13.90;6.50;;;17.30;1.00;;;;;;5098045;28;20468;-58
2023/07/03 07:38:22;;;;;;;19.20;7.50;;;17.50;1.00;;;;;;5098479;28;20468;-60
2023/07/03 07:40:50;;;;;;;14.27;6.67;;;17.80;1.00;;;;;;5097901;28;20436;-59
2023/07/03 07:43:17;;;;;;;14.43;6.10;;;18.00;1.00;;;;;;5095961;28;21104;-58
2023/07/03 07:45:52;;;;;;;19.83;6.90;;;17.50;1.00;;;;;;5098581;28;20475;-59
2023/07/03 07:48:19;;;;;;;12.80;6.80;;;17.60;1.00;;;;;;5096616;28;20455;-58
2023/07/03 07:50:46;;;;;;;14.07;5.93;;;18.50;1.00;;;;;;5100153;28;20915;-59
2023/07/03 07:53:14;;;;;;;11.87;5.90;;;18.90;1.00;;;;;;5099554;28;20459;-59
2023/07/03 07:55:42;;;;;;;16.40;7.13;;;18.80;1.00;;;;;;5100088;28;20464;-60
2023/07/03 07:58:09;;;;;;;14.83;5.53;;;18.90;1.00;;;;;;5091510;28;20437;-59
2023/07/03 08:00:37;;;;;;;12.63;6.13;;;18.70;1.00;;;;;;5079712;28;20964;-60
2023/07/03 08:03:04;;;;;;;14.27;6.47;;;18.80;99.90;;;;;;5085094;28;20614;-60
2023/07/03 08:05:32;;;;;;;11.20;5.30;;;19.20;99.90;;;;;;5099855;28;20456;-58
2023/07/03 08:07:59;;;;;;;16.70;6.27;;;19.30;99.90;;;;;;5100240;28;20763;-59
2023/07/03 08:10:26;;;;;;;8.97;4.70;;;19.60;99.90;;;;;;5099941;28;21021;-59
2023/07/03 08:12:55;;;;;;;12.50;5.37;;;19.70;1.00;;;;;;5099580;28;20472;-59
2023/07/03 08:15:22;;;;;;;11.17;4.83;;;19.80;99.90;;;;;;5097866;28;20753;-60
2023/07/03 08:17:49;;;;;;;11.03;4.80;;;19.50;99.90;;;;;;5099235;28;20746;-59
2023/07/03 08:20:17;;;;;;;12.67;6.50;;;18.80;99.90;;;;;;5099036;28;20456;-58
2023/07/03 08:22:44;;;;;;;15.37;6.10;;;18.30;99.90;;;;;;5099412;28;20465;-58
2023/07/03 08:25:11;;;;;;;12.13;6.33;;;17.80;99.90;;;;;;5099195;28;20876;-60
2023/07/03 08:27:38;;;;;;;10.77;5.60;;;17.50;99.90;;;;;;5099337;28;20456;-56
2023/07/03 08:30:08;;;;;;;11.97;5.40;;;17.30;99.90;;;;;;5097739;28;20494;-60
2023/07/03 08:32:40;;;;;;;17.13;6.27;;;17.20;99.90;;;;;;5097167;28;20471;-59
2023/07/03 08:35:08;;;;;;;18.87;7.07;;;17.20;99.90;;;;;;5098794;28;20452;-59
2023/07/03 08:37:36;;;;;;;13.33;6.23;;;17.60;99.90;;;;;;5098513;28;20496;-59
2023/07/03 08:40:05;;;;;;;8.80;5.30;;;18.50;99.90;;;;;;5097391;28;20486;-61
2023/07/03 08:42:36;;;;;;;11.90;5.50;;;19.40;99.90;;;;;;5097241;28;20472;-59
2023/07/03 08:45:11;;;;;;;14.33;6.23;;;20.00;99.90;;;;;;5097033;28;20461;-59
2023/07/03 08:47:40;;;;;;;12.53;6.10;;;19.80;99.90;;;;;;5097818;28;20463;-60
2023/07/03 08:50:08;;;;;;;10.97;5.83;;;19.20;99.90;;;;;;5097104;28;20484;-60
2023/07/03 08:52:39;;;;;;;11.37;6.40;;;19.10;99.90;;;;;;5096061;28;20467;-58
2023/07/03 08:55:10;;;;;;;11.97;5.97;;;18.90;99.90;;;;;;5096862;28;20468;-59
2023/07/03 08:57:38;;;;;;;15.03;5.60;;;18.80;99.90;;;;;;5096695;28;20491;-58
2023/07/03 09:00:11;;;;;;;14.80;5.70;;;19.30;99.90;;;;;;5096271;28;20973;-62
2023/07/03 09:02:45;;;;;;;12.63;5.10;;;19.80;99.90;;;;;;5097018;28;20557;-58
2023/07/03 09:05:32;;;;;;;17.33;7.33;;;19.80;99.90;;;;;;5097626;28;20459;-58
2023/07/03 09:08:03;;;;;;;11.37;5.57;;;19.50;99.90;;;;;;5098245;28;20461;-58
2023/07/03 09:10:36;;;;;;;10.93;5.63;;;18.80;99.90;;;;;;5096416;28;20488;-61
2023/07/03 09:13:12;;;;;;;12.03;6.07;;;18.90;99.90;;;;;;5098986;28;20464;-61
2023/07/03 09:15:45;;;;;;;11.10;4.57;;;19.50;99.90;;;;;;5098070;28;20465;-66
2023/07/03 09:18:15;;;;;;;13.50;5.63;;;19.80;99.90;;;;;;5097269;28;20500;-63
2023/07/03 09:20:43;;;;;;;17.00;6.37;;;20.20;99.90;;;;;;5097865;28;20463;-64
2023/07/03 09:23:17;;;;;;;8.90;4.57;;;20.50;99.90;;;;;;5099273;28;20456;-60
2023/07/03 09:25:48;;;;;;;8.27;5.00;;;20.60;99.90;;;;;;5097677;28;20857;-58
2023/07/03 09:28:15;;;;;;;10.63;5.60;;;20.60;99.90;;;;;;5097679;28;20734;-63
2023/07/03 09:30:44;;;;;;;8.10;4.53;;;20.80;99.90;;;;;;5098970;28;20779;-64
2023/07/03 09:33:11;;;;;;;11.37;5.30;;;20.50;99.90;;;;;;5098908;28;20460;-62
2023/07/03 09:35:40;;;;;;;10.10;4.97;;;20.30;99.90;;;;;;5099299;28;20769;-62
2023/07/03 09:38:12;;;;;;;7.87;5.13;;;20.30;99.90;;;;;;5098371;28;20514;-63
2023/07/03 09:40:42;;;;;;;9.37;4.70;;;20.40;99.90;;;;;;5099500;28;20476;-56
2023/07/03 09:43:14;;;;;;;12.10;5.40;;;20.00;99.90;;;;;;5099475;28;20461;-66
2023/07/03 09:45:42;;;;;;;9.33;5.20;;;20.40;99.90;;;;;;5098150;28;20453;-64
2023/07/03 09:48:19;;;;;;;7.60;4.70;;;20.10;99.90;;;;;;5099019;28;20571;-66
2023/07/03 09:50:46;;;;;;;14.30;5.70;;;19.90;99.90;;;;;;5099006;28;20785;-64
2023/07/03 09:53:18;;;;;;;10.73;5.33;;;19.60;99.90;;;;;;5099321;28;20457;-60
2023/07/03 09:55:45;;;;;;;15.80;5.47;;;19.20;99.90;;;;;;5099049;28;20460;-64
2023/07/03 09:58:15;;;;;;;10.60;6.07;;;19.40;99.90;;;;;;5097048;28;20464;-64
2023/07/03 10:00:48;;;;;;;15.00;5.33;;;19.70;99.90;;;;;;5098956;28;20551;-63
2023/07/03 10:03:24;;;;;;;9.93;5.03;;;19.80;99.90;;;;;;5100751;28;20478;-64
2023/07/03 10:05:51;;;;;;;12.87;5.63;;;20.10;99.90;;;;;;5100202;28;20455;-61
2023/07/03 10:08:22;;;;;;;11.43;4.73;;;20.40;99.90;;;;;;5100213;28;20986;-65
2023/07/03 10:10:54;;;;;;;12.40;5.07;;;20.30;99.90;;;;;;5098743;28;20530;-62
2023/07/03 10:13:26;;;;;;;7.23;3.80;;;20.50;99.90;;;;;;5098525;28;20464;-63
2023/07/03 10:15:55;;;;;;;11.80;4.60;;;20.30;99.90;;;;;;5099171;28;20468;-65
2023/07/03 10:18:27;;;;;;;10.10;4.43;;;20.20;99.90;;;;;;5097888;28;20471;-65
2023/07/03 10:20:55;;;;;;;9.37;4.77;;;20.20;1.00;;;;;;5098999;28;20460;-67
2023/07/03 10:23:25;;;;;;;9.73;5.40;;;20.20;99.90;;;;;;5098181;28;20464;-64
2023/07/03 10:25:56;;;;;;;12.40;5.73;;;20.40;1.00;;;;;;5097344;28;20465;-64
2023/07/03 10:28:31;;;;;;;12.33;5.27;;;20.60;1.00;;;;;;5096885;28;20903;-64
2023/07/03 10:31:03;;;;;;;9.70;5.20;;;20.60;1.00;;;;;;5096267;28;20451;-63
2023/07/03 10:33:38;;;;;;;10.70;5.83;;;20.70;1.00;;;;;;5086608;28;20460;-65
2023/07/03 10:36:11;;;;;;;9.90;5.10;;;20.70;99.90;;;;;;5098258;28;20510;-66
2023/07/03 10:38:44;;;;;;;10.47;5.73;;;20.40;99.90;;;;;;5097347;28;20460;-64
2023/07/03 10:41:17;;;;;;;10.63;5.10;;;20.30;1.00;;;;;;5098766;28;20437;-65
2023/07/03 10:43:48;;;;;;;16.23;5.27;;;20.40;99.90;;;;;;5096584;28;20750;-64
2023/07/03 10:46:24;;;;;;;13.63;4.83;;;20.50;99.90;;;;;;5097814;28;20513;-64
2023/07/03 10:48:56;;;;;;;12.63;5.27;;;20.50;1.00;;;;;;5097307;28;20815;-65
2023/07/03 10:51:30;;;;;;;7.40;4.00;;;20.70;1.00;;;;;;5098518;28;20967;-65
2023/07/03 10:54:02;;;;;;;11.70;4.47;;;20.50;1.00;;;;;;5096401;28;20460;-64
2023/07/03 10:56:36;;;;;;;9.20;4.50;;;20.40;1.00;;;;;;5100163;28;20742;-62
2023/07/03 10:59:12;;;;;;;9.80;4.30;;;20.30;99.90;;;;;;5102161;28;20463;-64
2023/07/03 11:01:44;;;;;;;7.40;4.93;;;20.10;1.00;;;;;;5102912;28;20460;-62
2023/07/03 11:04:21;;;;;;;10.17;4.67;;;20.00;1.00;;;;;;5102721;28;20456;-64
2023/07/03 11:06:57;;;;;;;8.70;3.90;;;20.00;99.90;;;;;;5102401;28;20490;-64
2023/07/03 11:09:34;;;;;;;9.67;4.73;;;19.70;1.00;;;;;;5099396;28;20468;-69
2023/07/03 11:12:09;;;;;;;6.77;4.57;;;19.50;1.00;;;;;;5094123;28;20828;-63
2023/07/03 11:14:44;;;;;;;7.07;4.13;;;19.30;99.90;;;;;;5098337;28;20900;-62
2023/07/03 11:17:16;;;;;;;8.87;4.83;;;19.20;99.90;;;;;;5096796;28;20456;-64
2023/07/03 11:19:52;;;;;;;7.73;4.10;;;19.40;99.90;;;;;;5101081;28;20459;-64
2023/07/03 11:22:24;;;;;;;9.37;4.50;;;19.60;1.00;;;;;;5100532;28;20463;-62
2023/07/03 11:25:05;;;;;;;8.07;4.63;;;19.80;99.90;;;;;;5100401;28;20521;-65
2023/07/03 11:27:38;;;;;;;8.87;4.33;;;20.00;99.90;;;;;;5080484;28;20461;-65
2023/07/03 11:30:09;;;;;;;7.40;4.83;;;20.30;99.90;;;;;;5082562;28;20456;-64
2023/07/03 11:32:36;;;;;;;6.80;4.30;;;20.60;99.90;;;;;;5099485;28;20480;-64
2023/07/03 11:35:08;;;;;;;7.20;4.80;;;20.80;1.00;;;;;;5100642;28;20463;-63
2023/07/03 11:37:46;;;;;;;7.60;4.70;;;20.60;1.00;;;;;;5098411;28;20483;-60
2023/07/03 11:40:34;;;;;;;8.90;4.60;;;19.80;1.00;;;;;;5098814;28;20570;-62
2023/07/03 11:43:21;;;;;;;12.03;5.47;;;19.90;1.00;;;;;;5098684;28;20465;-64
2023/07/03 11:46:08;;;;;;;7.80;5.00;;;20.60;99.90;;;;;;5100377;28;20516;-61
2023/07/03 11:48:45;;;;;;;7.80;4.60;;;21.10;99.90;;;;;;5102644;28;20503;-64
2023/07/03 11:51:16;;;;;;;8.77;5.43;;;21.20;1.00;;;;;;5081667;28;20542;-66
2023/07/03 11:53:48;;;;;;;8.53;5.30;;;21.50;1.00;;;;;;5081994;28;20461;-66
2023/07/03 11:56:45;;;;;;;7.90;4.77;;;22.10;99.90;;;;;;5099410;28;20483;-62
2023/07/03 11:59:24;;;;;;;10.57;5.17;;;22.10;1.00;;;;;;5099558;28;20804;-63
2023/07/03 12:01:52;;;;;;;7.10;4.77;;;22.10;1.00;;;;;;5099718;28;20456;-62
2023/07/03 12:04:50;;;;;;;13.27;5.50;;;22.70;1.00;;;;;;5098272;28;20464;-62
2023/07/03 12:07:52;;;;;;;7.30;5.00;;;22.80;1.00;;;;;;5084354;28;20504;-69
2023/07/03 12:10:39;;;;;;;9.67;5.47;;;22.50;1.00;;;;;;5094523;28;20555;-62
2023/07/03 12:13:29;;;;;;;7.73;5.00;;;22.20;1.00;;;;;;5091325;28;20523;-63
2023/07/03 12:15:57;;;;;;;10.70;6.07;;;21.60;1.00;;;;;;5097569;28;20480;-63
2023/07/03 12:18:24;;;;;;;11.10;6.00;;;21.30;1.00;;;;;;5096854;28;20472;-63
2023/07/03 12:20:58;;;;;;;10.93;5.60;;;20.80;1.00;;;;;;5096955;28;20769;-61
2023/07/03 12:23:37;;;;;;;9.27;4.73;;;20.40;1.00;;;;;;5097933;28;20908;-64
2023/07/03 12:26:07;;;;;;;9.50;5.97;;;20.20;1.00;;;;;;5097752;28;20516;-63
2023/07/03 12:28:35;;;;;;;8.93;4.80;;;20.10;1.00;;;;;;5098239;28;20555;-62
2023/07/03 12:31:18;;;;;;;12.20;5.67;;;20.00;1.00;;;;;;5098105;28;20579;-62
2023/07/03 12:33:57;;;;;;;7.63;5.37;;;20.00;1.00;;;;;;5097604;28;20460;-62
2023/07/03 12:36:27;;;;;;;11.90;5.67;;;20.00;1.00;;;;;;5097199;28;20514;-63
2023/07/03 12:38:56;;;;;;;7.40;5.07;;;20.00;1.00;;;;;;5097617;28;20929;-64
2023/07/03 12:41:26;;;;;;;9.47;6.10;;;19.70;1.00;;;;;;5099164;28;20885;-65
2023/07/03 12:43:54;;;;;;;11.10;5.00;;;19.80;1.00;;;;;;5098567;28;20461;-65
2023/07/03 12:46:30;;;;;;;8.50;5.80;;;20.10;1.00;;;;;;5098533;28;20439;-65
2023/07/03 12:49:10;;;;;;;9.50;4.97;;;20.50;1.00;;;;;;5099367;28;20460;-66
2023/07/03 12:51:39;;;;;;;8.87;5.27;;;21.10;1.00;;;;;;5099922;28;20492;-63
2023/07/03 12:54:09;;;;;;;9.40;5.30;;;21.70;1.00;;;;;;5099562;28;20779;-63
2023/07/03 12:56:37;;;;;;;11.77;5.93;;;22.30;1.00;;;;;;5099398;28;20527;-63
2023/07/03 12:59:07;;;;;;;10.03;6.13;;;22.70;1.00;;;;;;5099687;28;20457;-63